createdAt,value
2018-09-15T00:00:19.712Z,4.20
2018-09-15T00:02:56.187Z,3.90
2018-09-15T00:05:32.855Z,4.93
2018-09-15T00:08:09.552Z,4.40
2018-09-15T00:10:46.032Z,6.87
2018-09-15T00:13:23.234Z,10.40
2018-09-15T00:15:59.691Z,6.70
2018-09-15T00:18:36.017Z,4.67
2018-09-15T00:21:18.163Z,4.70
2018-09-15T00:23:54.676Z,4.83
2018-09-15T00:26:31.091Z,4.33
2018-09-15T00:29:07.583Z,4.90
2018-09-15T00:31:44.089Z,3.17
2018-09-15T00:34:20.595Z,5.53
2018-09-15T00:37:00.230Z,3.77
2018-09-15T00:39:36.609Z,3.37
2018-09-15T00:42:13.586Z,5.67
2018-09-15T00:44:50.049Z,3.50
2018-09-15T00:47:26.415Z,4.30
2018-09-15T00:50:02.787Z,5.70
2018-09-15T00:52:39.851Z,4.17
2018-09-15T00:55:16.201Z,5.60
2018-09-15T00:57:52.630Z,5.77
2018-09-15T01:00:29.118Z,4.30
2018-09-15T01:03:05.701Z,5.37
2018-09-15T01:05:42.513Z,8.30
2018-09-15T01:08:19.037Z,7.70
2018-09-15T01:10:55.487Z,7.07
2018-09-15T01:13:31.978Z,3.73
2018-09-15T01:16:08.497Z,3.30
2018-09-15T01:18:45.090Z,3.57
2018-09-15T01:21:21.566Z,4.13
2018-09-15T01:23:58.052Z,4.40
2018-09-15T01:26:34.502Z,5.47
2018-09-15T01:29:10.883Z,3.00
2018-09-15T01:31:47.328Z,3.53
2018-09-15T01:34:23.706Z,3.50
2018-09-15T01:37:00.171Z,5.40
2018-09-15T01:39:36.681Z,3.40
2018-09-15T01:42:13.097Z,3.40
2018-09-15T01:44:49.662Z,5.03
2018-09-15T01:47:26.166Z,4.50
2018-09-15T01:50:02.654Z,3.43
2018-09-15T01:52:39.210Z,3.90
2018-09-15T01:55:15.547Z,3.13
2018-09-15T01:57:52.057Z,4.13
2018-09-15T02:00:28.567Z,5.13
2018-09-15T02:03:05.011Z,4.23
2018-09-15T02:05:41.613Z,6.57
2018-09-15T02:08:17.951Z,4.20
2018-09-15T02:10:54.400Z,4.30
2018-09-15T02:13:30.841Z,7.50
2018-09-15T02:16:07.376Z,4.63
2018-09-15T02:18:44.693Z,4.17
2018-09-15T02:21:21.219Z,6.13
2018-09-15T02:23:57.790Z,4.10
2018-09-15T02:26:34.401Z,3.80
2018-09-15T02:29:10.811Z,4.13
2018-09-15T02:31:47.367Z,4.93
2018-09-15T02:34:23.944Z,7.40
2018-09-15T02:37:00.277Z,4.60
2018-09-15T02:39:36.771Z,3.50
2018-09-15T02:42:13.299Z,2.97
2018-09-15T02:44:49.656Z,4.23
2018-09-15T02:47:26.144Z,5.53
2018-09-15T02:50:02.619Z,3.77
2018-09-15T02:52:39.153Z,3.90
2018-09-15T02:55:15.564Z,4.10
2018-09-15T02:57:51.910Z,4.90
2018-09-15T03:00:28.192Z,5.80
2018-09-15T03:03:04.720Z,4.83
2018-09-15T03:05:41.269Z,4.67
2018-09-15T03:08:17.822Z,3.47
2018-09-15T03:10:54.912Z,3.93
2018-09-15T03:13:31.258Z,6.27
2018-09-15T03:16:07.804Z,8.90
2018-09-15T03:18:44.225Z,5.13
2018-09-15T03:21:21.326Z,4.27
2018-09-15T03:23:57.849Z,4.50
2018-09-15T03:26:34.332Z,7.60
2018-09-15T03:29:10.759Z,5.33
2018-09-15T03:31:47.330Z,3.73
2018-09-15T03:34:23.817Z,5.53
2018-09-15T03:37:00.285Z,4.97
2018-09-15T03:39:36.703Z,3.67
2018-09-15T03:42:13.282Z,3.70
2018-09-15T03:44:49.647Z,5.00
2018-09-15T03:47:26.170Z,3.00
2018-09-15T03:50:02.530Z,5.37
2018-09-15T03:52:39.004Z,4.57
2018-09-15T03:55:15.415Z,3.73
2018-09-15T03:57:51.848Z,5.40
2018-09-15T04:00:28.410Z,3.87
2018-09-15T04:03:04.727Z,3.33
2018-09-15T04:05:41.208Z,4.77
2018-09-15T04:08:17.613Z,3.97
2018-09-15T04:10:54.168Z,4.10
2018-09-15T04:13:30.809Z,3.57
2018-09-15T04:16:07.173Z,4.93
2018-09-15T04:18:43.744Z,3.30
2018-09-15T04:21:20.265Z,4.13
2018-09-15T04:23:56.783Z,3.53
2018-09-15T04:26:33.850Z,3.17
2018-09-15T04:29:10.281Z,3.50
2018-09-15T04:31:46.838Z,3.40
2018-09-15T04:34:23.355Z,5.00
2018-09-15T04:37:00.475Z,3.60
2018-09-15T04:39:36.960Z,5.60
2018-09-15T04:42:13.420Z,5.03
2018-09-15T04:44:50.892Z,3.97
2018-09-15T04:47:27.583Z,4.43
2018-09-15T04:50:04.074Z,7.00
2018-09-15T04:52:40.789Z,7.17
2018-09-15T04:55:18.184Z,4.80
2018-09-15T04:57:54.995Z,5.20
2018-09-15T05:00:31.449Z,4.73
2018-09-15T05:03:07.933Z,3.80
2018-09-15T05:05:44.301Z,6.77
2018-09-15T05:08:20.746Z,8.27
2018-09-15T05:10:57.075Z,5.50
2018-09-15T05:13:33.560Z,11.90
2018-09-15T05:16:10.041Z,4.97
2018-09-15T05:18:46.464Z,3.73
2018-09-15T05:21:22.956Z,4.00
2018-09-15T05:23:59.371Z,5.60
2018-09-15T05:26:35.738Z,4.30
2018-09-15T05:29:12.366Z,5.30
2018-09-15T05:31:49.470Z,5.13
2018-09-15T05:34:25.935Z,4.90
2018-09-15T05:37:02.410Z,4.53
2018-09-15T05:39:38.820Z,6.83
2018-09-15T05:42:15.330Z,5.10
2018-09-15T05:44:51.815Z,4.40
2018-09-15T05:47:28.127Z,4.07
2018-09-15T05:50:04.746Z,5.10
2018-09-15T05:52:41.296Z,5.53
2018-09-15T05:55:17.955Z,5.13
2018-09-15T05:57:54.793Z,5.83
2018-09-15T06:00:31.200Z,4.20
2018-09-15T06:03:07.639Z,5.40
2018-09-15T06:05:44.320Z,9.33
2018-09-15T06:08:20.621Z,4.40
2018-09-15T06:10:57.094Z,4.67
2018-09-15T06:13:33.689Z,4.73
2018-09-15T06:16:10.431Z,4.37
2018-09-15T06:18:46.778Z,6.83
2018-09-15T06:21:23.971Z,4.30
2018-09-15T06:24:00.275Z,4.37
2018-09-15T06:26:36.879Z,4.43
2018-09-15T06:29:13.297Z,5.23
2018-09-15T06:31:49.827Z,5.40
2018-09-15T06:34:26.250Z,5.97
2018-09-15T06:37:02.724Z,6.70
2018-09-15T06:39:39.189Z,5.87
2018-09-15T06:42:15.605Z,5.03
2018-09-15T06:44:52.062Z,5.57
2018-09-15T06:47:28.459Z,9.33
2018-09-15T06:50:05.360Z,4.73
2018-09-15T06:52:41.936Z,5.07
2018-09-15T06:55:18.424Z,5.27
2018-09-15T06:57:54.666Z,10.43
2018-09-15T07:00:31.096Z,6.40
2018-09-15T07:03:07.557Z,8.73
2018-09-15T07:05:44.008Z,6.60
2018-09-15T07:08:20.555Z,7.10
2018-09-15T07:10:57.145Z,6.03
2018-09-15T07:13:33.680Z,5.60
2018-09-15T07:16:10.169Z,4.93
2018-09-15T07:18:46.552Z,7.90
2018-09-15T07:21:22.919Z,5.27
2018-09-15T07:23:59.473Z,7.33
2018-09-15T07:26:35.975Z,6.10
2018-09-15T07:29:12.354Z,5.13
2018-09-15T07:31:48.758Z,5.37
2018-09-15T07:34:25.205Z,6.47
2018-09-15T07:37:01.727Z,5.13
2018-09-15T07:39:37.950Z,6.57
2018-09-15T07:42:14.467Z,5.03
2018-09-15T07:44:50.837Z,5.20
2018-09-15T07:47:27.163Z,8.90
2018-09-15T07:50:04.396Z,9.83
2018-09-15T07:52:40.717Z,6.30
2018-09-15T07:55:17.228Z,5.83
2018-09-15T07:57:53.811Z,5.17
2018-09-15T08:00:31.176Z,5.83
2018-09-15T08:03:07.691Z,6.77
2018-09-15T08:05:44.009Z,6.20
2018-09-15T08:08:20.484Z,5.40
2018-09-15T08:10:57.140Z,8.50
2018-09-15T08:13:33.482Z,5.43
2018-09-15T08:16:10.113Z,4.87
2018-09-15T08:18:46.615Z,6.83
2018-09-15T08:21:23.622Z,7.10
2018-09-15T08:23:59.965Z,9.00
2018-09-15T08:26:36.330Z,4.50
2018-09-15T08:29:12.690Z,8.10
2018-09-15T08:31:49.412Z,3.40
2018-09-15T08:34:25.715Z,4.90
2018-09-15T08:37:02.116Z,4.00
2018-09-15T08:39:38.648Z,8.20
2018-09-15T08:42:15.129Z,7.73
2018-09-15T08:44:51.849Z,4.77
2018-09-15T08:47:28.296Z,3.30
2018-09-15T08:50:04.897Z,3.90
2018-09-15T08:52:41.162Z,3.93
2018-09-15T08:55:17.593Z,3.67
2018-09-15T08:57:54.010Z,2.90
2018-09-15T09:00:30.651Z,2.80
2018-09-15T09:03:07.257Z,5.40
2018-09-15T09:05:43.569Z,2.53
2018-09-15T09:08:20.000Z,2.93
2018-09-15T09:10:56.505Z,2.30
2018-09-15T09:13:32.864Z,5.13
2018-09-15T09:16:09.242Z,3.50
2018-09-15T09:18:46.232Z,5.13
2018-09-15T09:21:22.680Z,2.03
2018-09-15T09:23:59.019Z,1.97
2018-09-15T09:26:35.372Z,3.90
2018-09-15T09:29:11.690Z,2.50
2018-09-15T09:31:48.025Z,6.10
2018-09-15T09:34:24.470Z,2.97
2018-09-15T09:37:00.994Z,4.70
2018-09-15T09:39:37.546Z,2.00
2018-09-15T09:42:14.037Z,1.43
2018-09-15T09:44:50.487Z,1.10
2018-09-15T09:47:27.474Z,1.00
2018-09-15T09:50:04.054Z,1.63
2018-09-15T09:52:40.432Z,1.90
2018-09-15T09:55:16.890Z,1.33
2018-09-15T09:57:53.356Z,3.93
2018-09-15T10:00:34.955Z,0.60
2018-09-15T10:03:12.014Z,1.87
2018-09-15T10:05:48.582Z,1.83
2018-09-15T10:08:25.154Z,1.17
2018-09-15T10:11:01.500Z,0.93
2018-09-15T10:13:38.073Z,1.73
2018-09-15T10:16:14.865Z,0.67
2018-09-15T10:18:51.162Z,1.10
2018-09-15T10:21:27.762Z,0.80
2018-09-15T10:24:04.176Z,1.00
2018-09-15T10:26:41.300Z,1.90
2018-09-15T10:29:17.671Z,1.03
2018-09-15T10:31:54.245Z,0.73
2018-09-15T10:34:30.671Z,1.50
2018-09-15T10:37:07.254Z,2.00
2018-09-15T10:44:37.883Z,2.40
2018-09-15T10:47:14.522Z,1.37
2018-09-15T10:49:50.976Z,0.93
2018-09-15T10:52:27.787Z,1.43
2018-09-15T10:55:04.985Z,1.80
2018-09-15T10:57:41.505Z,1.20
2018-09-15T11:00:18.040Z,0.50
2018-09-15T11:02:54.644Z,0.93
2018-09-15T11:05:31.061Z,0.70
2018-09-15T11:08:07.611Z,1.53
2018-09-15T11:10:44.264Z,0.60
2018-09-15T11:13:20.830Z,0.63
2018-09-15T11:15:57.434Z,0.97
2018-09-15T11:18:33.846Z,1.17
2018-09-15T11:21:10.263Z,0.90
2018-09-15T11:23:46.671Z,3.03
2018-09-15T11:26:23.075Z,6.03
2018-09-15T11:28:59.596Z,1.90
2018-09-15T11:31:35.978Z,1.00
2018-09-15T11:34:12.428Z,0.90
2018-09-15T11:36:48.886Z,1.13
2018-09-15T11:39:26.175Z,1.20
2018-09-15T11:42:02.667Z,0.40
2018-09-15T11:44:39.109Z,0.60
2018-09-15T11:47:15.704Z,1.90
2018-09-15T11:49:52.582Z,3.70
2018-09-15T11:52:29.881Z,1.60
2018-09-15T11:55:06.422Z,1.00
2018-09-15T11:57:43.076Z,0.50
2018-09-15T12:00:23.475Z,1.10
2018-09-15T12:03:00.483Z,1.17
2018-09-15T12:05:37.118Z,0.80
2018-09-15T12:08:13.529Z,1.13
2018-09-15T12:10:50.038Z,4.47
2018-09-15T12:13:26.754Z,0.73
2018-09-15T12:16:03.117Z,2.27
2018-09-15T12:18:39.641Z,0.73
2018-09-15T12:21:15.862Z,1.60
2018-09-15T12:23:52.327Z,1.27
2018-09-15T12:26:28.653Z,1.07
2018-09-15T12:29:08.581Z,3.17
2018-09-15T12:31:44.922Z,1.00
2018-09-15T12:34:21.363Z,1.33
2018-09-15T12:36:59.029Z,2.43
2018-09-15T12:39:35.549Z,1.90
2018-09-15T12:42:12.026Z,1.07
2018-09-15T12:44:48.513Z,2.03
2018-09-15T12:47:25.366Z,1.77
2018-09-15T12:50:03.491Z,1.03
2018-09-15T12:52:39.991Z,2.30
2018-09-15T12:55:16.468Z,0.67
2018-09-15T12:57:53.156Z,1.57
2018-09-15T13:00:29.457Z,3.03
2018-09-15T13:03:05.854Z,1.70
2018-09-15T13:05:41.264Z,0.73
2018-09-15T13:08:17.456Z,1.70
2018-09-15T13:10:53.891Z,1.30
2018-09-15T13:13:30.830Z,0.57
2018-09-15T13:16:07.299Z,1.80
2018-09-15T13:18:43.848Z,1.17
2018-09-15T13:21:20.963Z,1.50
2018-09-15T13:23:57.298Z,0.90
2018-09-15T13:26:33.610Z,2.00
2018-09-15T13:29:10.037Z,1.10
2018-09-15T13:31:46.581Z,1.23
2018-09-15T13:34:23.107Z,1.57
2018-09-15T13:36:59.614Z,1.27
2018-09-15T13:39:36.140Z,2.77
2018-09-15T13:42:12.426Z,0.70
2018-09-15T13:44:49.469Z,0.90
2018-09-15T13:47:25.956Z,0.80
2018-09-15T13:50:02.248Z,0.70
2018-09-15T13:52:38.711Z,1.40
2018-09-15T13:55:15.068Z,1.57
2018-09-15T13:57:51.696Z,0.43
2018-09-15T14:00:28.084Z,1.97
2018-09-15T14:03:04.624Z,2.03
2018-09-15T14:05:41.064Z,2.23
2018-09-15T14:08:17.553Z,1.10
2018-09-15T14:10:53.897Z,2.53
2018-09-15T14:13:30.413Z,1.40
2018-09-15T14:16:07.467Z,1.17
2018-09-15T14:18:43.939Z,0.63
2018-09-15T14:21:20.491Z,4.60
2018-09-15T14:23:56.956Z,0.90
2018-09-15T14:26:33.464Z,0.50
2018-09-15T14:29:10.519Z,0.70
2018-09-15T14:31:46.930Z,1.37
2018-09-15T14:34:23.510Z,2.03
2018-09-15T14:36:59.992Z,0.73
2018-09-15T14:39:36.448Z,0.63
2018-09-15T14:42:12.927Z,1.50
2018-09-15T14:44:49.400Z,1.20
2018-09-15T14:47:25.912Z,1.87
2018-09-15T14:50:02.319Z,2.43
2018-09-15T14:52:38.687Z,0.50
2018-09-15T14:55:15.200Z,1.10
2018-09-15T14:57:51.487Z,1.00
2018-09-15T15:00:28.035Z,0.70
2018-09-15T15:03:06.612Z,2.20
2018-09-15T15:05:43.116Z,2.40
2018-09-15T15:08:19.620Z,0.77
2018-09-15T15:10:56.144Z,1.03
2018-09-15T15:13:32.580Z,0.53
2018-09-15T15:16:09.069Z,0.80
2018-09-15T15:18:45.434Z,2.50
2018-09-15T15:21:21.683Z,1.37
2018-09-15T15:23:58.191Z,1.23
2018-09-15T15:26:34.633Z,0.40
2018-09-15T15:29:11.054Z,1.57
2018-09-15T15:31:47.526Z,1.80
2018-09-15T15:34:23.952Z,1.43
2018-09-15T15:37:00.434Z,0.60
2018-09-15T15:39:36.853Z,0.70
2018-09-15T15:42:13.277Z,0.50
2018-09-15T15:44:49.814Z,0.93
2018-09-15T15:47:26.246Z,2.20
2018-09-15T15:50:02.663Z,0.50
2018-09-15T15:52:39.198Z,1.23
2018-09-15T15:55:15.643Z,1.53
2018-09-15T15:57:52.171Z,1.10
2018-09-15T16:00:28.615Z,1.30
2018-09-15T16:03:05.080Z,1.10
2018-09-15T16:05:41.545Z,1.83
2018-09-15T16:08:17.992Z,1.73
2018-09-15T16:10:54.409Z,0.77
2018-09-15T16:13:30.927Z,1.07
2018-09-15T16:16:07.521Z,2.40
2018-09-15T16:18:43.895Z,0.83
2018-09-15T16:21:20.302Z,2.20
2018-09-15T16:23:56.752Z,1.90
2018-09-15T16:26:33.470Z,2.40
2018-09-15T16:29:10.372Z,1.60
2018-09-15T16:31:46.845Z,1.80
2018-09-15T16:34:23.264Z,4.00
2018-09-15T16:37:00.067Z,3.77
2018-09-15T16:39:36.683Z,4.27
2018-09-15T16:42:13.226Z,1.20
2018-09-15T16:44:50.105Z,2.63
2018-09-15T16:47:26.728Z,2.80
2018-09-15T16:50:03.171Z,1.97
2018-09-15T16:52:39.590Z,2.83
2018-09-15T16:55:16.162Z,2.93
2018-09-15T16:57:52.642Z,2.43
2018-09-15T17:00:29.025Z,2.90
2018-09-15T17:03:05.464Z,3.57
2018-09-15T17:05:41.903Z,2.00
2018-09-15T17:08:18.471Z,1.80
2018-09-15T17:10:54.974Z,2.43
2018-09-15T17:13:31.400Z,3.27
2018-09-15T17:16:07.960Z,2.17
2018-09-15T17:18:44.456Z,2.77
2018-09-15T17:21:20.965Z,3.77
2018-09-15T17:23:57.542Z,3.87
2018-09-15T17:26:33.916Z,2.60
2018-09-15T17:29:10.465Z,3.53
2018-09-15T17:31:47.023Z,4.43
2018-09-15T17:34:23.456Z,3.33
2018-09-15T17:36:59.917Z,4.00
2018-09-15T17:39:36.457Z,2.37
2018-09-15T17:42:12.736Z,3.13
2018-09-15T17:44:49.234Z,1.63
2018-09-15T17:47:25.664Z,1.23
2018-09-15T17:50:02.165Z,2.10
2018-09-15T17:52:38.628Z,1.00
2018-09-15T17:55:15.753Z,1.40
2018-09-15T17:57:52.272Z,5.00
2018-09-15T18:00:28.793Z,2.93
2018-09-15T18:03:06.318Z,2.47
2018-09-15T18:05:42.844Z,3.17
2018-09-15T18:08:19.280Z,2.77
2018-09-15T18:10:56.043Z,2.83
2018-09-15T18:13:32.546Z,2.67
2018-09-15T18:16:09.059Z,3.07
2018-09-15T18:18:45.703Z,1.63
2018-09-15T18:21:22.231Z,3.13
2018-09-15T18:23:58.687Z,3.80
2018-09-15T18:26:35.189Z,2.53
2018-09-15T18:29:11.895Z,4.50
2018-09-15T18:31:48.222Z,4.60
2018-09-15T18:34:24.627Z,3.53
2018-09-15T18:37:01.310Z,3.93
2018-09-15T18:39:37.614Z,5.50
2018-09-15T18:42:14.127Z,4.07
2018-09-15T18:44:50.603Z,5.83
2018-09-15T18:47:27.262Z,3.00
2018-09-15T18:50:03.649Z,2.60
2018-09-15T18:52:40.049Z,2.47
2018-09-15T18:55:16.552Z,2.17
2018-09-15T18:57:53.267Z,4.93
2018-09-15T19:00:29.973Z,4.23
2018-09-15T19:03:06.594Z,2.93
2018-09-15T19:05:43.491Z,5.50
2018-09-15T19:08:20.159Z,1.87
2018-09-15T19:10:56.546Z,4.53
2018-09-15T19:13:33.020Z,2.70
2018-09-15T19:16:10.141Z,4.17
2018-09-15T19:18:46.664Z,3.33
2018-09-15T19:21:23.080Z,3.07
2018-09-15T19:23:59.728Z,3.17
2018-09-15T19:26:36.998Z,4.33
2018-09-15T19:29:14.003Z,4.43
2018-09-15T19:31:50.845Z,2.20
2018-09-15T19:34:27.560Z,3.13
2018-09-15T19:37:04.052Z,4.47
2018-09-15T19:39:40.428Z,6.03
2018-09-15T19:42:16.947Z,4.00
2018-09-15T19:44:53.410Z,5.37
2018-09-15T19:47:29.890Z,4.07
2018-09-15T19:50:06.546Z,4.00
2018-09-15T19:52:42.967Z,4.17
2018-09-15T19:55:19.468Z,4.23
2018-09-15T19:57:55.953Z,5.30
2018-09-15T20:00:32.575Z,3.67
2018-09-15T20:03:08.993Z,3.67
2018-09-15T20:05:45.324Z,4.77
2018-09-15T20:08:21.872Z,7.77
2018-09-15T20:10:58.375Z,4.20
2018-09-15T20:13:35.367Z,4.20
2018-09-15T20:16:10.148Z,3.13
2018-09-15T20:18:44.762Z,3.13
2018-09-15T20:21:19.472Z,5.13
2018-09-15T20:23:55.939Z,5.30
2018-09-15T20:26:32.466Z,4.67
2018-09-15T20:29:09.125Z,9.63
2018-09-15T20:31:45.464Z,5.60
2018-09-15T20:34:21.959Z,7.43
2018-09-15T20:36:58.388Z,5.10
2018-09-15T20:39:34.899Z,12.73
2018-09-15T20:42:11.264Z,5.30
2018-09-15T20:44:47.881Z,4.90
2018-09-15T20:47:24.337Z,4.70
2018-09-15T20:50:01.069Z,7.20
2018-09-15T20:52:38.556Z,6.70
2018-09-15T20:55:15.426Z,6.80
2018-09-15T20:57:51.915Z,7.80
2018-09-15T21:00:28.727Z,5.27
2018-09-15T21:03:05.751Z,4.67
2018-09-15T21:05:42.334Z,6.63
2018-09-15T21:08:19.033Z,5.97
2018-09-15T21:10:55.463Z,5.07
2018-09-15T21:13:31.777Z,6.60
2018-09-15T21:16:08.403Z,5.77
2018-09-15T21:18:45.201Z,5.03
2018-09-15T21:21:21.684Z,6.40
2018-09-15T21:23:58.800Z,5.13
2018-09-15T21:26:35.296Z,5.30
2018-09-15T21:29:11.574Z,7.40
2018-09-15T21:31:48.058Z,5.83
2018-09-15T21:34:24.583Z,7.30
2018-09-15T21:37:01.321Z,5.40
2018-09-15T21:39:37.820Z,7.00
2018-09-15T21:42:14.267Z,7.37
2018-09-15T21:44:50.813Z,6.50
2018-09-15T21:47:27.298Z,3.83
2018-09-15T21:50:03.623Z,6.80
2018-09-15T21:52:40.063Z,4.47
2018-09-15T21:55:17.291Z,7.33
2018-09-15T21:57:53.957Z,6.63
2018-09-15T22:00:31.239Z,3.67
2018-09-15T22:03:07.894Z,3.83
2018-09-15T22:05:44.346Z,5.27
2018-09-15T22:08:21.481Z,4.30
2018-09-15T22:10:57.815Z,4.00
2018-09-15T22:13:34.322Z,5.30
2018-09-15T22:16:11.604Z,3.03
2018-09-15T22:18:48.303Z,6.43
2018-09-15T22:21:24.800Z,4.00
2018-09-15T22:24:01.251Z,4.57
2018-09-15T22:26:37.573Z,5.47
2018-09-15T22:29:14.048Z,4.30
2018-09-15T22:31:50.455Z,7.10
2018-09-15T22:34:26.788Z,8.70
2018-09-15T22:37:03.246Z,7.20
2018-09-15T22:39:39.536Z,9.83
2018-09-15T22:42:15.950Z,6.53
2018-09-15T22:44:52.513Z,4.47
2018-09-15T22:47:29.936Z,5.57
2018-09-15T22:50:06.596Z,6.00
2018-09-15T22:52:43.030Z,4.83
2018-09-15T22:55:21.456Z,4.80
2018-09-15T22:57:57.926Z,5.10
2018-09-15T23:00:34.298Z,4.07
2018-09-15T23:03:10.783Z,6.57
2018-09-15T23:05:47.438Z,5.20
2018-09-15T23:08:23.675Z,4.40
2018-09-15T23:11:00.221Z,5.40
2018-09-15T23:13:36.744Z,5.90
2018-09-15T23:16:13.230Z,6.03
2018-09-15T23:18:49.862Z,6.87
2018-09-15T23:21:26.185Z,7.27
2018-09-15T23:24:02.626Z,6.23
2018-09-15T23:26:39.129Z,4.93
2018-09-15T23:29:15.547Z,3.80
2018-09-15T23:31:52.032Z,3.43
2018-09-15T23:34:28.499Z,4.37
2018-09-15T23:37:05.167Z,5.50
2018-09-15T23:39:41.670Z,3.40
2018-09-15T23:42:18.049Z,3.83
2018-09-15T23:44:54.552Z,4.00
2018-09-15T23:47:30.945Z,5.40
2018-09-15T23:50:07.547Z,7.07
2018-09-15T23:52:43.957Z,3.17
2018-09-15T23:55:20.333Z,3.90
2018-09-15T23:57:56.799Z,3.53
